sensor_id;sensor_type;location;lat;lon;timestamp;temperature;humidity
38263;DHT22;24054;50.128;19.730;2024-03-17T00:02:07;21.00;61.60
38263;DHT22;24054;50.128;19.730;2024-03-17T00:04:34;21.00;61.60
38263;DHT22;24054;50.128;19.730;2024-03-17T00:07:01;21.00;61.50
38263;DHT22;24054;50.128;19.730;2024-03-17T00:09:28;21.00;61.60
38263;DHT22;24054;50.128;19.730;2024-03-17T00:11:54;21.00;61.50
38263;DHT22;24054;50.128;19.730;2024-03-17T00:14:22;21.00;61.50
38263;DHT22;24054;50.128;19.730;2024-03-17T00:16:47;21.00;61.40
38263;DHT22;24054;50.128;19.730;2024-03-17T00:19:15;21.00;61.30
38263;DHT22;24054;50.128;19.730;2024-03-17T00:21:42;21.00;61.30
38263;DHT22;24054;50.128;19.730;2024-03-17T00:24:10;21.00;61.20
38263;DHT22;24054;50.128;19.730;2024-03-17T00:26:38;21.00;61.30
38263;DHT22;24054;50.128;19.730;2024-03-17T00:29:06;21.00;61.30
38263;DHT22;24054;50.128;19.730;2024-03-17T00:31:32;21.00;61.20
38263;DHT22;24054;50.128;19.730;2024-03-17T00:33:59;21.00;61.30
38263;DHT22;24054;50.128;19.730;2024-03-17T00:36:24;21.00;61.20
38263;DHT22;24054;50.128;19.730;2024-03-17T00:38:51;21.00;61.20
38263;DHT22;24054;50.128;19.730;2024-03-17T00:41:20;21.00;61.10
38263;DHT22;24054;50.128;19.730;2024-03-17T00:43:47;21.00;61.10
38263;DHT22;24054;50.128;19.730;2024-03-17T00:46:13;21.00;61.10
38263;DHT22;24054;50.128;19.730;2024-03-17T00:48:40;21.00;61.10
38263;DHT22;24054;50.128;19.730;2024-03-17T00:51:05;20.90;61.10
38263;DHT22;24054;50.128;19.730;2024-03-17T00:53:32;20.90;61.20
38263;DHT22;24054;50.128;19.730;2024-03-17T00:55:58;20.90;61.20
38263;DHT22;24054;50.128;19.730;2024-03-17T00:58:27;21.00;61.30
38263;DHT22;24054;50.128;19.730;2024-03-17T01:00:54;20.90;61.20
38263;DHT22;24054;50.128;19.730;2024-03-17T01:03:21;20.90;61.20
38263;DHT22;24054;50.128;19.730;2024-03-17T01:05:47;20.90;61.10
38263;DHT22;24054;50.128;19.730;2024-03-17T01:08:17;20.90;61.10
38263;DHT22;24054;50.128;19.730;2024-03-17T01:10:43;20.90;61.00
38263;DHT22;24054;50.128;19.730;2024-03-17T01:13:11;20.90;61.00
38263;DHT22;24054;50.128;19.730;2024-03-17T01:15:38;20.90;61.10
38263;DHT22;24054;50.128;19.730;2024-03-17T01:18:05;20.90;61.00
38263;DHT22;24054;50.128;19.730;2024-03-17T01:20:32;20.90;61.10
38263;DHT22;24054;50.128;19.730;2024-03-17T01:22:59;20.90;61.00
38263;DHT22;24054;50.128;19.730;2024-03-17T01:25:24;20.90;61.00
38263;DHT22;24054;50.128;19.730;2024-03-17T01:27:53;20.90;61.00
38263;DHT22;24054;50.128;19.730;2024-03-17T01:30:19;20.90;61.00
38263;DHT22;24054;50.128;19.730;2024-03-17T01:32:47;20.90;60.90
38263;DHT22;24054;50.128;19.730;2024-03-17T01:35:14;20.90;60.80
38263;DHT22;24054;50.128;19.730;2024-03-17T01:37:41;20.80;60.80
38263;DHT22;24054;50.128;19.730;2024-03-17T01:40:07;20.80;60.70
38263;DHT22;24054;50.128;19.730;2024-03-17T01:42:34;20.90;60.70
38263;DHT22;24054;50.128;19.730;2024-03-17T01:45:01;20.80;60.60
38263;DHT22;24054;50.128;19.730;2024-03-17T01:47:43;20.80;60.50
38263;DHT22;24054;50.128;19.730;2024-03-17T01:50:12;20.80;60.50
38263;DHT22;24054;50.128;19.730;2024-03-17T01:52:38;20.80;60.50
38263;DHT22;24054;50.128;19.730;2024-03-17T01:55:05;20.80;60.40
38263;DHT22;24054;50.128;19.730;2024-03-17T01:57:32;20.80;60.30
38263;DHT22;24054;50.128;19.730;2024-03-17T01:59:59;20.80;60.30
38263;DHT22;24054;50.128;19.730;2024-03-17T02:02:25;20.80;60.20
38263;DHT22;24054;50.128;19.730;2024-03-17T02:04:52;20.80;60.20
38263;DHT22;24054;50.128;19.730;2024-03-17T02:07:19;20.80;60.10
38263;DHT22;24054;50.128;19.730;2024-03-17T02:09:46;20.80;60.10
38263;DHT22;24054;50.128;19.730;2024-03-17T02:12:12;20.80;60.00
38263;DHT22;24054;50.128;19.730;2024-03-17T02:14:39;20.80;60.00
38263;DHT22;24054;50.128;19.730;2024-03-17T02:17:05;20.80;60.00
38263;DHT22;24054;50.128;19.730;2024-03-17T02:19:32;20.80;59.90
38263;DHT22;24054;50.128;19.730;2024-03-17T02:21:57;20.80;59.80
38263;DHT22;24054;50.128;19.730;2024-03-17T02:24:26;20.80;59.80
38263;DHT22;24054;50.128;19.730;2024-03-17T02:26:51;20.70;59.70
38263;DHT22;24054;50.128;19.730;2024-03-17T02:29:18;20.70;59.70
38263;DHT22;24054;50.128;19.730;2024-03-17T02:31:44;20.70;59.70
38263;DHT22;24054;50.128;19.730;2024-03-17T02:34:11;20.70;59.60
38263;DHT22;24054;50.128;19.730;2024-03-17T02:36:37;20.70;59.60
38263;DHT22;24054;50.128;19.730;2024-03-17T02:39:04;20.70;59.50
38263;DHT22;24054;50.128;19.730;2024-03-17T02:41:50;20.70;59.50
38263;DHT22;24054;50.128;19.730;2024-03-17T02:44:17;20.70;59.50
38263;DHT22;24054;50.128;19.730;2024-03-17T02:46:44;20.70;59.50
38263;DHT22;24054;50.128;19.730;2024-03-17T02:49:12;20.70;59.40
38263;DHT22;24054;50.128;19.730;2024-03-17T02:51:43;20.70;59.40
38263;DHT22;24054;50.128;19.730;2024-03-17T02:54:10;20.70;59.40
38263;DHT22;24054;50.128;19.730;2024-03-17T02:56:36;20.70;59.30
38263;DHT22;24054;50.128;19.730;2024-03-17T02:59:05;20.70;59.30
38263;DHT22;24054;50.128;19.730;2024-03-17T03:01:32;20.60;59.20
38263;DHT22;24054;50.128;19.730;2024-03-17T03:04:00;20.70;59.30
38263;DHT22;24054;50.128;19.730;2024-03-17T03:06:26;20.60;59.20
38263;DHT22;24054;50.128;19.730;2024-03-17T03:08:53;20.60;59.20
38263;DHT22;24054;50.128;19.730;2024-03-17T03:11:20;20.60;59.10
38263;DHT22;24054;50.128;19.730;2024-03-17T03:13:47;20.60;59.10
38263;DHT22;24054;50.128;19.730;2024-03-17T03:16:15;20.60;59.10
38263;DHT22;24054;50.128;19.730;2024-03-17T03:18:43;20.70;59.20
38263;DHT22;24054;50.128;19.730;2024-03-17T03:21:11;20.60;59.10
38263;DHT22;24054;50.128;19.730;2024-03-17T03:23:38;20.60;59.10
38263;DHT22;24054;50.128;19.730;2024-03-17T03:26:05;20.60;59.10
38263;DHT22;24054;50.128;19.730;2024-03-17T03:28:35;20.60;59.10
38263;DHT22;24054;50.128;19.730;2024-03-17T03:31:02;20.60;59.10
38263;DHT22;24054;50.128;19.730;2024-03-17T03:33:30;20.60;59.10
38263;DHT22;24054;50.128;19.730;2024-03-17T03:35:57;20.60;59.10
38263;DHT22;24054;50.128;19.730;2024-03-17T03:38:24;20.60;59.10
38263;DHT22;24054;50.128;19.730;2024-03-17T03:40:51;20.60;59.00
38263;DHT22;24054;50.128;19.730;2024-03-17T03:43:21;20.60;59.00
38263;DHT22;24054;50.128;19.730;2024-03-17T03:45:47;20.60;59.00
38263;DHT22;24054;50.128;19.730;2024-03-17T03:48:14;20.60;59.00
38263;DHT22;24054;50.128;19.730;2024-03-17T03:50:42;20.60;59.00
38263;DHT22;24054;50.128;19.730;2024-03-17T03:53:09;20.60;59.00
38263;DHT22;24054;50.128;19.730;2024-03-17T03:55:36;20.60;59.00
38263;DHT22;24054;50.128;19.730;2024-03-17T03:58:04;20.60;59.00
38263;DHT22;24054;50.128;19.730;2024-03-17T04:00:31;20.60;59.00
38263;DHT22;24054;50.128;19.730;2024-03-17T04:02:58;20.50;58.90
38263;DHT22;24054;50.128;19.730;2024-03-17T04:05:25;20.60;59.00
38263;DHT22;24054;50.128;19.730;2024-03-17T04:07:53;20.50;58.90
38263;DHT22;24054;50.128;19.730;2024-03-17T04:10:20;20.60;58.90
38263;DHT22;24054;50.128;19.730;2024-03-17T04:12:48;20.60;58.90
38263;DHT22;24054;50.128;19.730;2024-03-17T04:15:15;20.60;59.00
38263;DHT22;24054;50.128;19.730;2024-03-17T04:17:42;20.50;58.90
38263;DHT22;24054;50.128;19.730;2024-03-17T04:20:09;20.50;58.80
38263;DHT22;24054;50.128;19.730;2024-03-17T04:22:39;20.50;58.90
38263;DHT22;24054;50.128;19.730;2024-03-17T04:25:08;20.50;58.90
38263;DHT22;24054;50.128;19.730;2024-03-17T04:27:35;20.50;58.80
38263;DHT22;24054;50.128;19.730;2024-03-17T04:30:02;20.50;58.80
38263;DHT22;24054;50.128;19.730;2024-03-17T04:32:31;20.50;58.80
38263;DHT22;24054;50.128;19.730;2024-03-17T04:34:58;20.50;58.80
38263;DHT22;24054;50.128;19.730;2024-03-17T04:37:25;20.50;58.80
38263;DHT22;24054;50.128;19.730;2024-03-17T04:39:52;20.50;58.80
38263;DHT22;24054;50.128;19.730;2024-03-17T04:42:24;20.50;58.80
38263;DHT22;24054;50.128;19.730;2024-03-17T04:44:51;20.50;58.80
38263;DHT22;24054;50.128;19.730;2024-03-17T04:47:18;20.50;58.70
38263;DHT22;24054;50.128;19.730;2024-03-17T04:49:45;20.50;58.70
38263;DHT22;24054;50.128;19.730;2024-03-17T04:52:12;20.50;58.70
38263;DHT22;24054;50.128;19.730;2024-03-17T04:54:40;20.40;58.70
38263;DHT22;24054;50.128;19.730;2024-03-17T04:57:08;20.50;58.70
38263;DHT22;24054;50.128;19.730;2024-03-17T04:59:36;20.50;58.70
38263;DHT22;24054;50.128;19.730;2024-03-17T05:02:04;20.50;59.20
38263;DHT22;24054;50.128;19.730;2024-03-17T05:04:31;20.40;58.60
38263;DHT22;24054;50.128;19.730;2024-03-17T05:06:57;20.50;58.60
38263;DHT22;24054;50.128;19.730;2024-03-17T05:09:24;20.40;58.60
38263;DHT22;24054;50.128;19.730;2024-03-17T05:11:51;20.40;58.50
38263;DHT22;24054;50.128;19.730;2024-03-17T05:14:18;20.40;58.50
38263;DHT22;24054;50.128;19.730;2024-03-17T05:16:49;20.40;58.50
38263;DHT22;24054;50.128;19.730;2024-03-17T05:19:16;20.40;59.00
38263;DHT22;24054;50.128;19.730;2024-03-17T05:21:44;20.40;58.50
38263;DHT22;24054;50.128;19.730;2024-03-17T05:24:11;20.40;58.40
38263;DHT22;24054;50.128;19.730;2024-03-17T05:26:38;20.40;58.40
38263;DHT22;24054;50.128;19.730;2024-03-17T05:29:05;20.40;58.40
38263;DHT22;24054;50.128;19.730;2024-03-17T05:31:31;20.40;58.30
38263;DHT22;24054;50.128;19.730;2024-03-17T05:34:00;20.40;58.30
38263;DHT22;24054;50.128;19.730;2024-03-17T05:36:27;20.40;58.30
38263;DHT22;24054;50.128;19.730;2024-03-17T05:38:57;20.40;58.30
38263;DHT22;24054;50.128;19.730;2024-03-17T05:41:24;20.40;58.30
38263;DHT22;24054;50.128;19.730;2024-03-17T05:43:51;20.40;58.30
38263;DHT22;24054;50.128;19.730;2024-03-17T05:46:18;20.40;58.80
38263;DHT22;24054;50.128;19.730;2024-03-17T05:48:45;20.40;58.20
38263;DHT22;24054;50.128;19.730;2024-03-17T05:51:14;20.30;58.10
38263;DHT22;24054;50.128;19.730;2024-03-17T05:53:41;20.30;58.10
38263;DHT22;24054;50.128;19.730;2024-03-17T05:56:09;20.30;58.10
38263;DHT22;24054;50.128;19.730;2024-03-17T05:58:36;20.30;58.10
38263;DHT22;24054;50.128;19.730;2024-03-17T06:01:04;20.30;58.10
38263;DHT22;24054;50.128;19.730;2024-03-17T06:03:32;20.30;58.00
38263;DHT22;24054;50.128;19.730;2024-03-17T06:06:01;20.30;58.00
38263;DHT22;24054;50.128;19.730;2024-03-17T06:08:30;20.30;58.00
38263;DHT22;24054;50.128;19.730;2024-03-17T06:10:56;20.30;58.00
38263;DHT22;24054;50.128;19.730;2024-03-17T06:13:25;20.30;57.90
38263;DHT22;24054;50.128;19.730;2024-03-17T06:15:53;20.30;57.80
38263;DHT22;24054;50.128;19.730;2024-03-17T06:18:26;20.30;57.90
38263;DHT22;24054;50.128;19.730;2024-03-17T06:20:53;20.40;58.10
38263;DHT22;24054;50.128;19.730;2024-03-17T06:23:23;20.40;58.10
38263;DHT22;24054;50.128;19.730;2024-03-17T06:25:54;20.50;58.10
38263;DHT22;24054;50.128;19.730;2024-03-17T06:28:21;20.50;58.10
38263;DHT22;24054;50.128;19.730;2024-03-17T06:30:54;20.50;58.00
38263;DHT22;24054;50.128;19.730;2024-03-17T06:33:21;20.60;58.00
38263;DHT22;24054;50.128;19.730;2024-03-17T06:35:48;20.60;58.00
38263;DHT22;24054;50.128;19.730;2024-03-17T06:38:15;20.60;58.00
38263;DHT22;24054;50.128;19.730;2024-03-17T06:40:42;20.70;58.00
38263;DHT22;24054;50.128;19.730;2024-03-17T06:43:10;20.70;57.90
38263;DHT22;24054;50.128;19.730;2024-03-17T06:45:37;20.70;57.80
38263;DHT22;24054;50.128;19.730;2024-03-17T06:48:04;20.80;57.90
38263;DHT22;24054;50.128;19.730;2024-03-17T06:50:32;20.80;57.90
38263;DHT22;24054;50.128;19.730;2024-03-17T06:52:59;20.90;57.80
38263;DHT22;24054;50.128;19.730;2024-03-17T06:55:26;20.90;57.80
38263;DHT22;24054;50.128;19.730;2024-03-17T06:57:53;20.90;57.70
38263;DHT22;24054;50.128;19.730;2024-03-17T07:00:21;20.90;57.70
38263;DHT22;24054;50.128;19.730;2024-03-17T07:02:50;21.00;57.70
38263;DHT22;24054;50.128;19.730;2024-03-17T07:05:17;21.00;57.70
38263;DHT22;24054;50.128;19.730;2024-03-17T07:07:44;21.00;57.60
38263;DHT22;24054;50.128;19.730;2024-03-17T07:10:11;21.00;57.60
38263;DHT22;24054;50.128;19.730;2024-03-17T07:12:39;21.00;57.60
38263;DHT22;24054;50.128;19.730;2024-03-17T07:15:06;21.10;57.60
38263;DHT22;24054;50.128;19.730;2024-03-17T07:17:35;21.10;57.50
38263;DHT22;24054;50.128;19.730;2024-03-17T07:20:02;21.10;57.50
38263;DHT22;24054;50.128;19.730;2024-03-17T07:22:33;21.10;57.50
38263;DHT22;24054;50.128;19.730;2024-03-17T07:25:00;21.10;57.50
38263;DHT22;24054;50.128;19.730;2024-03-17T07:27:27;21.10;57.40
38263;DHT22;24054;50.128;19.730;2024-03-17T07:29:54;21.20;57.50
38263;DHT22;24054;50.128;19.730;2024-03-17T07:32:21;21.20;57.30
38263;DHT22;24054;50.128;19.730;2024-03-17T07:34:50;21.30;57.30
38263;DHT22;24054;50.128;19.730;2024-03-17T07:37:17;21.30;57.20
38263;DHT22;24054;50.128;19.730;2024-03-17T07:39:44;21.40;57.10
38263;DHT22;24054;50.128;19.730;2024-03-17T07:42:15;21.40;57.00
38263;DHT22;24054;50.128;19.730;2024-03-17T07:44:43;21.50;57.00
38263;DHT22;24054;50.128;19.730;2024-03-17T07:47:09;21.50;56.90
38263;DHT22;24054;50.128;19.730;2024-03-17T07:49:36;21.60;56.90
38263;DHT22;24054;50.128;19.730;2024-03-17T07:52:05;21.60;56.80
38263;DHT22;24054;50.128;19.730;2024-03-17T07:54:32;21.70;56.90
38263;DHT22;24054;50.128;19.730;2024-03-17T07:57:00;21.70;56.70
38263;DHT22;24054;50.128;19.730;2024-03-17T07:59:27;21.70;56.60
38263;DHT22;24054;50.128;19.730;2024-03-17T08:01:55;21.80;56.50
38263;DHT22;24054;50.128;19.730;2024-03-17T08:04:22;21.80;56.50
38263;DHT22;24054;50.128;19.730;2024-03-17T08:06:49;21.80;56.30
38263;DHT22;24054;50.128;19.730;2024-03-17T08:09:18;22.00;56.30
38263;DHT22;24054;50.128;19.730;2024-03-17T08:11:45;22.00;56.20
38263;DHT22;24054;50.128;19.730;2024-03-17T08:14:13;22.00;56.20
38263;DHT22;24054;50.128;19.730;2024-03-17T08:16:41;22.10;56.10
38263;DHT22;24054;50.128;19.730;2024-03-17T08:19:08;22.10;56.00
38263;DHT22;24054;50.128;19.730;2024-03-17T08:21:35;22.20;55.90
38263;DHT22;24054;50.128;19.730;2024-03-17T08:24:02;22.20;55.80
38263;DHT22;24054;50.128;19.730;2024-03-17T08:26:30;22.30;55.80
38263;DHT22;24054;50.128;19.730;2024-03-17T08:28:58;22.30;55.70
38263;DHT22;24054;50.128;19.730;2024-03-17T08:31:24;22.30;56.10
38263;DHT22;24054;50.128;19.730;2024-03-17T08:33:51;22.30;56.10
38263;DHT22;24054;50.128;19.730;2024-03-17T08:36:18;22.30;56.10
38263;DHT22;24054;50.128;19.730;2024-03-17T08:38:46;22.30;56.10
38263;DHT22;24054;50.128;19.730;2024-03-17T08:41:13;22.40;56.10
38263;DHT22;24054;50.128;19.730;2024-03-17T08:43:41;22.40;55.90
38263;DHT22;24054;50.128;19.730;2024-03-17T08:46:09;22.50;55.90
38263;DHT22;24054;50.128;19.730;2024-03-17T08:48:36;22.50;55.80
38263;DHT22;24054;50.128;19.730;2024-03-17T08:51:04;22.60;55.80
38263;DHT22;24054;50.128;19.730;2024-03-17T08:53:31;22.60;55.80
38263;DHT22;24054;50.128;19.730;2024-03-17T08:55:58;22.70;55.70
38263;DHT22;24054;50.128;19.730;2024-03-17T08:58:25;22.70;55.90
38263;DHT22;24054;50.128;19.730;2024-03-17T09:00:54;22.70;55.80
38263;DHT22;24054;50.128;19.730;2024-03-17T09:03:21;22.80;55.40
38263;DHT22;24054;50.128;19.730;2024-03-17T09:05:49;22.80;54.60
38263;DHT22;24054;50.128;19.730;2024-03-17T09:08:20;22.90;54.70
38263;DHT22;24054;50.128;19.730;2024-03-17T09:10:47;22.90;54.80
38263;DHT22;24054;50.128;19.730;2024-03-17T09:13:15;22.90;54.60
38263;DHT22;24054;50.128;19.730;2024-03-17T09:15:49;22.90;54.60
38263;DHT22;24054;50.128;19.730;2024-03-17T09:18:17;22.90;54.70
38263;DHT22;24054;50.128;19.730;2024-03-17T09:20:44;22.90;54.10
38263;DHT22;24054;50.128;19.730;2024-03-17T09:23:11;22.80;53.40
38263;DHT22;24054;50.128;19.730;2024-03-17T09:25:39;22.90;53.20
38263;DHT22;24054;50.128;19.730;2024-03-17T09:28:06;23.00;53.10
38263;DHT22;24054;50.128;19.730;2024-03-17T09:30:33;23.00;52.70
38263;DHT22;24054;50.128;19.730;2024-03-17T09:33:00;23.10;52.80
38263;DHT22;24054;50.128;19.730;2024-03-17T09:35:31;23.10;52.90
38263;DHT22;24054;50.128;19.730;2024-03-17T09:37:58;23.20;52.90
38263;DHT22;24054;50.128;19.730;2024-03-17T09:40:25;23.30;53.10
38263;DHT22;24054;50.128;19.730;2024-03-17T09:42:51;23.30;51.50
38263;DHT22;24054;50.128;19.730;2024-03-17T09:45:18;23.30;50.40
38263;DHT22;24054;50.128;19.730;2024-03-17T09:47:47;23.30;48.00
38263;DHT22;24054;50.128;19.730;2024-03-17T09:50:14;23.30;47.60
38263;DHT22;24054;50.128;19.730;2024-03-17T09:52:44;23.40;48.20
38263;DHT22;24054;50.128;19.730;2024-03-17T09:55:13;23.40;48.70
38263;DHT22;24054;50.128;19.730;2024-03-17T09:57:41;23.30;48.60
38263;DHT22;24054;50.128;19.730;2024-03-17T10:00:10;23.40;47.50
38263;DHT22;24054;50.128;19.730;2024-03-17T10:02:41;23.40;47.30
38263;DHT22;24054;50.128;19.730;2024-03-17T10:05:17;23.40;46.60
38263;DHT22;24054;50.128;19.730;2024-03-17T10:07:46;23.30;45.90
38263;DHT22;24054;50.128;19.730;2024-03-17T10:10:13;23.30;45.80
38263;DHT22;24054;50.128;19.730;2024-03-17T10:12:41;23.30;45.10
38263;DHT22;24054;50.128;19.730;2024-03-17T10:15:10;23.30;44.00
38263;DHT22;24054;50.128;19.730;2024-03-17T10:17:37;23.30;43.30
38263;DHT22;24054;50.128;19.730;2024-03-17T10:20:14;23.30;43.00
38263;DHT22;24054;50.128;19.730;2024-03-17T10:22:59;23.40;42.70
38263;DHT22;24054;50.128;19.730;2024-03-17T10:25:26;23.30;42.20
38263;DHT22;24054;50.128;19.730;2024-03-17T10:27:54;23.40;42.10
38263;DHT22;24054;50.128;19.730;2024-03-17T10:30:21;23.40;42.00
38263;DHT22;24054;50.128;19.730;2024-03-17T10:32:53;23.40;41.40
38263;DHT22;24054;50.128;19.730;2024-03-17T10:35:27;23.50;40.80
38263;DHT22;24054;50.128;19.730;2024-03-17T10:37:54;23.50;40.70
38263;DHT22;24054;50.128;19.730;2024-03-17T10:40:24;23.50;41.20
38263;DHT22;24054;50.128;19.730;2024-03-17T10:42:51;23.50;38.60
38263;DHT22;24054;50.128;19.730;2024-03-17T10:45:17;23.40;38.40
38263;DHT22;24054;50.128;19.730;2024-03-17T10:47:46;23.40;38.80
38263;DHT22;24054;50.128;19.730;2024-03-17T10:50:15;23.40;37.90
38263;DHT22;24054;50.128;19.730;2024-03-17T10:52:44;23.30;38.40
38263;DHT22;24054;50.128;19.730;2024-03-17T10:55:17;23.40;38.70
38263;DHT22;24054;50.128;19.730;2024-03-17T10:57:47;23.40;37.80
38263;DHT22;24054;50.128;19.730;2024-03-17T11:00:15;23.40;39.30
38263;DHT22;24054;50.128;19.730;2024-03-17T11:02:44;23.40;38.70
38263;DHT22;24054;50.128;19.730;2024-03-17T11:05:14;23.40;38.00
38263;DHT22;24054;50.128;19.730;2024-03-17T11:07:41;23.40;37.60
38263;DHT22;24054;50.128;19.730;2024-03-17T11:10:14;23.40;37.80
38263;DHT22;24054;50.128;19.730;2024-03-17T11:12:42;23.30;37.20
38263;DHT22;24054;50.128;19.730;2024-03-17T11:20:43;23.40;35.90
38263;DHT22;24054;50.128;19.730;2024-03-17T11:23:25;23.40;35.70
38263;DHT22;24054;50.128;19.730;2024-03-17T11:25:52;23.50;35.00
38263;DHT22;24054;50.128;19.730;2024-03-17T11:31:01;23.50;35.40
38263;DHT22;24054;50.128;19.730;2024-03-17T11:33:49;23.50;35.80
38263;DHT22;24054;50.128;19.730;2024-03-17T11:36:35;23.50;36.70
38263;DHT22;24054;50.128;19.730;2024-03-17T11:39:04;23.70;36.30
38263;DHT22;24054;50.128;19.730;2024-03-17T11:41:38;23.80;36.70
38263;DHT22;24054;50.128;19.730;2024-03-17T11:44:13;23.90;37.10
38263;DHT22;24054;50.128;19.730;2024-03-17T11:46:39;24.00;37.40
38263;DHT22;24054;50.128;19.730;2024-03-17T11:49:06;24.10;37.60
38263;DHT22;24054;50.128;19.730;2024-03-17T11:51:32;24.20;37.80
38263;DHT22;24054;50.128;19.730;2024-03-17T11:54:01;24.30;38.10
38263;DHT22;24054;50.128;19.730;2024-03-17T11:56:27;24.40;38.40
38263;DHT22;24054;50.128;19.730;2024-03-17T11:59:03;24.50;38.70
38263;DHT22;24054;50.128;19.730;2024-03-17T12:01:29;24.50;38.80
38263;DHT22;24054;50.128;19.730;2024-03-17T12:03:56;24.60;39.20
38263;DHT22;24054;50.128;19.730;2024-03-17T12:06:23;24.70;39.40
38263;DHT22;24054;50.128;19.730;2024-03-17T12:08:50;24.80;39.70
38263;DHT22;24054;50.128;19.730;2024-03-17T12:11:18;24.80;39.80
38263;DHT22;24054;50.128;19.730;2024-03-17T12:13:45;24.90;40.10
38263;DHT22;24054;50.128;19.730;2024-03-17T12:16:12;24.90;40.30
38263;DHT22;24054;50.128;19.730;2024-03-17T12:18:38;25.00;40.60
38263;DHT22;24054;50.128;19.730;2024-03-17T12:21:10;25.10;40.80
38263;DHT22;24054;50.128;19.730;2024-03-17T12:23:37;25.10;40.90
38263;DHT22;24054;50.128;19.730;2024-03-17T12:26:04;25.10;41.10
38263;DHT22;24054;50.128;19.730;2024-03-17T12:28:31;25.10;41.20
38263;DHT22;24054;50.128;19.730;2024-03-17T12:30:58;25.20;41.40
38263;DHT22;24054;50.128;19.730;2024-03-17T12:33:24;25.20;41.50
38263;DHT22;24054;50.128;19.730;2024-03-17T12:35:51;25.20;41.60
38263;DHT22;24054;50.128;19.730;2024-03-17T12:38:20;25.30;41.80
38263;DHT22;24054;50.128;19.730;2024-03-17T12:40:48;25.30;41.80
38263;DHT22;24054;50.128;19.730;2024-03-17T12:43:14;25.30;41.90
38263;DHT22;24054;50.128;19.730;2024-03-17T12:45:42;25.30;41.80
38263;DHT22;24054;50.128;19.730;2024-03-17T12:48:12;25.40;41.90
38263;DHT22;24054;50.128;19.730;2024-03-17T12:50:44;25.30;42.00
38263;DHT22;24054;50.128;19.730;2024-03-17T12:53:13;25.30;41.90
38263;DHT22;24054;50.128;19.730;2024-03-17T12:55:42;25.30;42.00
38263;DHT22;24054;50.128;19.730;2024-03-17T12:58:36;25.30;41.90
38263;DHT22;24054;50.128;19.730;2024-03-17T13:01:22;25.30;42.00
38263;DHT22;24054;50.128;19.730;2024-03-17T13:03:49;25.20;41.90
38263;DHT22;24054;50.128;19.730;2024-03-17T13:06:22;25.20;41.90
38263;DHT22;24054;50.128;19.730;2024-03-17T13:08:49;25.20;41.90
38263;DHT22;24054;50.128;19.730;2024-03-17T13:11:16;25.10;41.80
38263;DHT22;24054;50.128;19.730;2024-03-17T13:13:43;25.10;41.80
38263;DHT22;24054;50.128;19.730;2024-03-17T13:16:10;25.00;41.70
38263;DHT22;24054;50.128;19.730;2024-03-17T13:18:39;25.00;41.70
38263;DHT22;24054;50.128;19.730;2024-03-17T13:21:07;24.90;41.50
38263;DHT22;24054;50.128;19.730;2024-03-17T13:23:33;24.90;41.60
38263;DHT22;24054;50.128;19.730;2024-03-17T13:26:00;24.80;41.50
38263;DHT22;24054;50.128;19.730;2024-03-17T13:28:27;24.80;41.30
38263;DHT22;24054;50.128;19.730;2024-03-17T13:30:57;24.70;41.30
38263;DHT22;24054;50.128;19.730;2024-03-17T13:33:23;24.70;41.10
38263;DHT22;24054;50.128;19.730;2024-03-17T13:35:52;24.70;41.20
38263;DHT22;24054;50.128;19.730;2024-03-17T13:38:19;24.70;40.90
38263;DHT22;24054;50.128;19.730;2024-03-17T13:40:45;24.70;40.90
38263;DHT22;24054;50.128;19.730;2024-03-17T13:43:13;24.70;40.90
38263;DHT22;24054;50.128;19.730;2024-03-17T13:45:40;24.70;40.80
38263;DHT22;24054;50.128;19.730;2024-03-17T13:48:08;24.70;40.70
38263;DHT22;24054;50.128;19.730;2024-03-17T13:50:36;24.60;40.50
38263;DHT22;24054;50.128;19.730;2024-03-17T13:53:05;24.50;40.60
38263;DHT22;24054;50.128;19.730;2024-03-17T13:55:33;24.50;40.60
38263;DHT22;24054;50.128;19.730;2024-03-17T13:58:00;24.50;40.70
38263;DHT22;24054;50.128;19.730;2024-03-17T14:00:29;24.50;40.60
38263;DHT22;24054;50.128;19.730;2024-03-17T14:02:59;24.40;40.60
38263;DHT22;24054;50.128;19.730;2024-03-17T14:05:26;24.40;40.40
38263;DHT22;24054;50.128;19.730;2024-03-17T14:07:53;24.30;40.50
38263;DHT22;24054;50.128;19.730;2024-03-17T14:10:22;24.30;40.40
38263;DHT22;24054;50.128;19.730;2024-03-17T14:12:49;24.30;40.70
38263;DHT22;24054;50.128;19.730;2024-03-17T14:15:17;24.20;40.70
38263;DHT22;24054;50.128;19.730;2024-03-17T14:17:44;24.10;40.70
38263;DHT22;24054;50.128;19.730;2024-03-17T14:20:11;24.20;40.50
38263;DHT22;24054;50.128;19.730;2024-03-17T14:22:39;24.20;40.70
38263;DHT22;24054;50.128;19.730;2024-03-17T14:25:07;24.20;40.70
38263;DHT22;24054;50.128;19.730;2024-03-17T14:27:36;24.20;40.90
38263;DHT22;24054;50.128;19.730;2024-03-17T14:30:03;24.10;40.70
38263;DHT22;24054;50.128;19.730;2024-03-17T14:32:31;24.10;41.00
38263;DHT22;24054;50.128;19.730;2024-03-17T14:34:58;24.10;41.00
38263;DHT22;24054;50.128;19.730;2024-03-17T14:37:25;24.10;41.20
38263;DHT22;24054;50.128;19.730;2024-03-17T14:39:52;24.00;42.40
38263;DHT22;24054;50.128;19.730;2024-03-17T14:42:19;24.00;40.40
38263;DHT22;24054;50.128;19.730;2024-03-17T14:44:47;23.90;40.30
38263;DHT22;24054;50.128;19.730;2024-03-17T14:47:14;23.90;40.50
38263;DHT22;24054;50.128;19.730;2024-03-17T14:49:41;23.80;40.60
38263;DHT22;24054;50.128;19.730;2024-03-17T14:52:08;23.80;41.20
38263;DHT22;24054;50.128;19.730;2024-03-17T14:54:35;23.80;41.00
38263;DHT22;24054;50.128;19.730;2024-03-17T14:57:02;23.70;41.10
38263;DHT22;24054;50.128;19.730;2024-03-17T14:59:29;23.70;41.60
38263;DHT22;24054;50.128;19.730;2024-03-17T15:01:57;23.70;41.60
38263;DHT22;24054;50.128;19.730;2024-03-17T15:04:25;23.70;41.40
38263;DHT22;24054;50.128;19.730;2024-03-17T15:06:55;23.60;41.60
38263;DHT22;24054;50.128;19.730;2024-03-17T15:09:22;23.60;41.60
38263;DHT22;24054;50.128;19.730;2024-03-17T15:11:49;23.60;41.30
38263;DHT22;24054;50.128;19.730;2024-03-17T15:14:16;23.50;41.10
38263;DHT22;24054;50.128;19.730;2024-03-17T15:16:43;23.50;40.80
38263;DHT22;24054;50.128;19.730;2024-03-17T15:19:11;23.50;40.60
38263;DHT22;24054;50.128;19.730;2024-03-17T15:21:39;23.50;40.40
38263;DHT22;24054;50.128;19.730;2024-03-17T15:24:05;23.50;40.30
38263;DHT22;24054;50.128;19.730;2024-03-17T15:26:33;23.40;40.20
38263;DHT22;24054;50.128;19.730;2024-03-17T15:29:00;23.40;40.20